sensor_id;sensor_type;location;lat;lon;timestamp;temperature;humidity
19174;DHT22;9719;49.322;8.536;2023-04-05T00:04:59;3.40;70.70
19174;DHT22;9719;49.322;8.536;2023-04-05T00:10:04;3.40;70.90
19174;DHT22;9719;49.322;8.536;2023-04-05T00:15:06;3.40;70.80
19174;DHT22;9719;49.322;8.536;2023-04-05T00:20:09;3.30;71.50
19174;DHT22;9719;49.322;8.536;2023-04-05T00:25:12;3.30;71.50
19174;DHT22;9719;49.322;8.536;2023-04-05T00:30:14;3.10;71.90
19174;DHT22;9719;49.322;8.536;2023-04-05T00:35:20;3.00;72.00
19174;DHT22;9719;49.322;8.536;2023-04-05T00:40:23;2.80;72.60
19174;DHT22;9719;49.322;8.536;2023-04-05T00:45:25;2.70;72.70
19174;DHT22;9719;49.322;8.536;2023-04-05T00:50:27;2.50;73.60
19174;DHT22;9719;49.322;8.536;2023-04-05T00:55:31;2.30;74.60
19174;DHT22;9719;49.322;8.536;2023-04-05T01:00:35;2.10;74.90
19174;DHT22;9719;49.322;8.536;2023-04-05T01:05:42;1.90;75.90
19174;DHT22;9719;49.322;8.536;2023-04-05T01:10:50;1.80;77.20
19174;DHT22;9719;49.322;8.536;2023-04-05T01:15:52;1.60;77.30
19174;DHT22;9719;49.322;8.536;2023-04-05T01:20:58;1.50;77.20
19174;DHT22;9719;49.322;8.536;2023-04-05T01:26:39;1.30;76.60
19174;DHT22;9719;49.322;8.536;2023-04-05T01:31:49;1.00;77.20
19174;DHT22;9719;49.322;8.536;2023-04-05T01:36:55;0.80;79.50
19174;DHT22;9719;49.322;8.536;2023-04-05T01:41:58;0.70;80.20
19174;DHT22;9719;49.322;8.536;2023-04-05T01:47:01;0.60;81.60
19174;DHT22;9719;49.322;8.536;2023-04-05T01:52:03;0.60;84.50
19174;DHT22;9719;49.322;8.536;2023-04-05T01:57:05;0.50;86.40
19174;DHT22;9719;49.322;8.536;2023-04-05T02:02:08;0.50;92.00
19174;DHT22;9719;49.322;8.536;2023-04-05T02:07:09;0.60;90.00
19174;DHT22;9719;49.322;8.536;2023-04-05T02:12:11;0.50;90.30
19174;DHT22;9719;49.322;8.536;2023-04-05T02:17:14;0.40;90.50
19174;DHT22;9719;49.322;8.536;2023-04-05T02:22:17;0.30;90.70
19174;DHT22;9719;49.322;8.536;2023-04-05T02:27:19;0.10;90.20
19174;DHT22;9719;49.322;8.536;2023-04-05T02:32:22;0.00;90.40
19174;DHT22;9719;49.322;8.536;2023-04-05T02:37:24;-0.20;90.30
19174;DHT22;9719;49.322;8.536;2023-04-05T02:42:26;-0.30;90.20
19174;DHT22;9719;49.322;8.536;2023-04-05T02:47:29;-0.50;91.50
19174;DHT22;9719;49.322;8.536;2023-04-05T02:52:31;-0.60;90.40
19174;DHT22;9719;49.322;8.536;2023-04-05T02:57:33;-0.70;89.90
19174;DHT22;9719;49.322;8.536;2023-04-05T03:02:36;-0.80;91.60
19174;DHT22;9719;49.322;8.536;2023-04-05T03:07:39;-0.90;91.00
19174;DHT22;9719;49.322;8.536;2023-04-05T03:12:41;-1.00;90.20
19174;DHT22;9719;49.322;8.536;2023-04-05T03:17:45;-1.10;89.70
19174;DHT22;9719;49.322;8.536;2023-04-05T03:22:47;-1.30;89.30
19174;DHT22;9719;49.322;8.536;2023-04-05T03:27:48;-1.30;96.40
19174;DHT22;9719;49.322;8.536;2023-04-05T03:32:53;-1.10;95.60
19174;DHT22;9719;49.322;8.536;2023-04-05T03:37:56;-1.10;94.80
19174;DHT22;9719;49.322;8.536;2023-04-05T03:42:58;-1.20;94.60
19174;DHT22;9719;49.322;8.536;2023-04-05T03:48:01;-1.40;95.10
19174;DHT22;9719;49.322;8.536;2023-04-05T03:53:03;-1.50;97.00
19174;DHT22;9719;49.322;8.536;2023-04-05T03:58:05;-1.50;98.00
19174;DHT22;9719;49.322;8.536;2023-04-05T04:03:08;-1.50;98.40
19174;DHT22;9719;49.322;8.536;2023-04-05T04:08:10;-1.60;95.40
19174;DHT22;9719;49.322;8.536;2023-04-05T04:13:12;-1.80;95.30
19174;DHT22;9719;49.322;8.536;2023-04-05T04:18:15;-1.80;99.90
19174;DHT22;9719;49.322;8.536;2023-04-05T04:23:17;-1.70;99.90
19174;DHT22;9719;49.322;8.536;2023-04-05T04:28:20;-1.80;99.70
19174;DHT22;9719;49.322;8.536;2023-04-05T04:33:25;-1.80;99.90
19174;DHT22;9719;49.322;8.536;2023-04-05T04:38:27;-1.90;97.20
19174;DHT22;9719;49.322;8.536;2023-04-05T04:43:29;-2.10;98.20
19174;DHT22;9719;49.322;8.536;2023-04-05T04:48:34;-2.20;98.20
19174;DHT22;9719;49.322;8.536;2023-04-05T04:53:37;-2.20;99.30
19174;DHT22;9719;49.322;8.536;2023-04-05T04:58:38;-2.40;97.60
19174;DHT22;9719;49.322;8.536;2023-04-05T05:03:42;-2.40;96.90
19174;DHT22;9719;49.322;8.536;2023-04-05T05:08:43;-2.50;97.60
19174;DHT22;9719;49.322;8.536;2023-04-05T05:13:45;-2.50;99.90
19174;DHT22;9719;49.322;8.536;2023-04-05T05:18:49;-2.40;99.40
19174;DHT22;9719;49.322;8.536;2023-04-05T05:23:51;-2.30;99.90
19174;DHT22;9719;49.322;8.536;2023-04-05T05:28:52;-2.20;99.90
19174;DHT22;9719;49.322;8.536;2023-04-05T05:33:55;-2.10;99.90
19174;DHT22;9719;49.322;8.536;2023-04-05T05:38:57;-1.90;99.90
19174;DHT22;9719;49.322;8.536;2023-04-05T05:43:59;-1.60;99.90
19174;DHT22;9719;49.322;8.536;2023-04-05T05:49:02;-1.10;99.90
19174;DHT22;9719;49.322;8.536;2023-04-05T05:54:04;-0.70;99.90
19174;DHT22;9719;49.322;8.536;2023-04-05T05:59:05;-0.40;99.90
19174;DHT22;9719;49.322;8.536;2023-04-05T06:04:08;0.00;99.90
19174;DHT22;9719;49.322;8.536;2023-04-05T06:09:10;0.40;99.90
19174;DHT22;9719;49.322;8.536;2023-04-05T06:14:12;0.80;99.90
19174;DHT22;9719;49.322;8.536;2023-04-05T06:19:15;1.10;99.90
19174;DHT22;9719;49.322;8.536;2023-04-05T06:24:16;1.50;99.90
19174;DHT22;9719;49.322;8.536;2023-04-05T06:29:18;1.80;99.90
19174;DHT22;9719;49.322;8.536;2023-04-05T06:34:21;2.20;99.90
19174;DHT22;9719;49.322;8.536;2023-04-05T06:39:22;2.50;99.90
19174;DHT22;9719;49.322;8.536;2023-04-05T06:44:24;2.70;99.90
19174;DHT22;9719;49.322;8.536;2023-04-05T06:49:27;3.00;99.90
19174;DHT22;9719;49.322;8.536;2023-04-05T06:54:29;3.20;99.90
19174;DHT22;9719;49.322;8.536;2023-04-05T06:59:30;3.40;99.90
19174;DHT22;9719;49.322;8.536;2023-04-05T07:04:33;3.70;99.90
19174;DHT22;9719;49.322;8.536;2023-04-05T07:09:36;3.90;99.90
19174;DHT22;9719;49.322;8.536;2023-04-05T07:14:37;4.10;99.90
19174;DHT22;9719;49.322;8.536;2023-04-05T07:19:40;4.20;99.90
19174;DHT22;9719;49.322;8.536;2023-04-05T07:24:43;4.50;99.90
19174;DHT22;9719;49.322;8.536;2023-04-05T07:29:46;4.70;99.90
19174;DHT22;9719;49.322;8.536;2023-04-05T07:34:49;4.70;99.90
19174;DHT22;9719;49.322;8.536;2023-04-05T07:39:50;5.00;99.90
19174;DHT22;9719;49.322;8.536;2023-04-05T07:44:52;5.20;99.90
19174;DHT22;9719;49.322;8.536;2023-04-05T07:49:55;5.40;99.90
19174;DHT22;9719;49.322;8.536;2023-04-05T07:54:56;5.70;99.90
19174;DHT22;9719;49.322;8.536;2023-04-05T07:59:58;5.90;99.90
19174;DHT22;9719;49.322;8.536;2023-04-05T08:05:01;6.10;99.90
19174;DHT22;9719;49.322;8.536;2023-04-05T08:10:04;6.30;99.90
19174;DHT22;9719;49.322;8.536;2023-04-05T08:15:06;6.50;99.90
19174;DHT22;9719;49.322;8.536;2023-04-05T08:20:10;6.60;99.20
19174;DHT22;9719;49.322;8.536;2023-04-05T08:25:12;6.90;99.00
19174;DHT22;9719;49.322;8.536;2023-04-05T08:30:14;7.00;96.50
19174;DHT22;9719;49.322;8.536;2023-04-05T08:35:17;7.30;96.10
19174;DHT22;9719;49.322;8.536;2023-04-05T08:40:19;7.20;94.80
19174;DHT22;9719;49.322;8.536;2023-04-05T08:45:21;7.50;94.00
19174;DHT22;9719;49.322;8.536;2023-04-05T08:50:26;7.70;93.10
19174;DHT22;9719;49.322;8.536;2023-04-05T08:55:28;7.90;90.30
19174;DHT22;9719;49.322;8.536;2023-04-05T09:00:29;8.10;89.50
19174;DHT22;9719;49.322;8.536;2023-04-05T09:05:35;8.20;88.50
19174;DHT22;9719;49.322;8.536;2023-04-05T09:10:39;8.30;83.80
19174;DHT22;9719;49.322;8.536;2023-04-05T09:15:41;8.40;84.40
19174;DHT22;9719;49.322;8.536;2023-04-05T09:20:45;8.70;83.30
19174;DHT22;9719;49.322;8.536;2023-04-05T09:25:46;9.10;80.70
19174;DHT22;9719;49.322;8.536;2023-04-05T09:30:51;9.40;80.20
19174;DHT22;9719;49.322;8.536;2023-04-05T09:35:56;9.80;78.50
19174;DHT22;9719;49.322;8.536;2023-04-05T09:40:57;13.60;87.80
19174;DHT22;9719;49.322;8.536;2023-04-05T09:46:00;19.30;77.80
19174;DHT22;9719;49.322;8.536;2023-04-05T09:51:05;24.10;63.90
19174;DHT22;9719;49.322;8.536;2023-04-05T09:56:08;27.60;53.50
19174;DHT22;9719;49.322;8.536;2023-04-05T10:01:13;27.60;39.80
19174;DHT22;9719;49.322;8.536;2023-04-05T10:06:16;28.90;38.90
19174;DHT22;9719;49.322;8.536;2023-04-05T10:11:19;30.00;34.10
19174;DHT22;9719;49.322;8.536;2023-04-05T10:16:22;29.70;32.70
19174;DHT22;9719;49.322;8.536;2023-04-05T10:21:28;31.00;31.70
19174;DHT22;9719;49.322;8.536;2023-04-05T10:26:39;31.50;29.20
19174;DHT22;9719;49.322;8.536;2023-04-05T10:31:49;33.80;29.40
19174;DHT22;9719;49.322;8.536;2023-04-05T10:36:57;33.80;27.10
19174;DHT22;9719;49.322;8.536;2023-04-05T10:42:05;35.90;26.70
19174;DHT22;9719;49.322;8.536;2023-04-05T10:47:10;36.70;25.40
19174;DHT22;9719;49.322;8.536;2023-04-05T10:52:16;36.50;26.40
19174;DHT22;9719;49.322;8.536;2023-04-05T10:57:19;38.20;25.80
19174;DHT22;9719;49.322;8.536;2023-04-05T11:02:21;39.30;25.30
19174;DHT22;9719;49.322;8.536;2023-04-05T11:07:24;40.50;25.00
19174;DHT22;9719;49.322;8.536;2023-04-05T11:13:04;40.10;23.90
19174;DHT22;9719;49.322;8.536;2023-04-05T11:18:07;40.70;23.70
19174;DHT22;9719;49.322;8.536;2023-04-05T11:23:12;40.40;22.50
19174;DHT22;9719;49.322;8.536;2023-04-05T11:28:24;40.10;22.10
19174;DHT22;9719;49.322;8.536;2023-04-05T11:33:52;39.50;21.90
19174;DHT22;9719;49.322;8.536;2023-04-05T11:39:27;40.90;22.10
19174;DHT22;9719;49.322;8.536;2023-04-05T11:44:38;42.50;21.30
19174;DHT22;9719;49.322;8.536;2023-04-05T11:49:40;43.50;21.10
19174;DHT22;9719;49.322;8.536;2023-04-05T11:54:44;43.50;21.40
19174;DHT22;9719;49.322;8.536;2023-04-05T11:59:49;43.40;20.30
19174;DHT22;9719;49.322;8.536;2023-04-05T12:04:53;45.80;20.50
19174;DHT22;9719;49.322;8.536;2023-04-05T12:10:01;45.60;20.20
19174;DHT22;9719;49.322;8.536;2023-04-05T12:15:05;45.80;20.30
19174;DHT22;9719;49.322;8.536;2023-04-05T12:20:09;45.10;19.20
19174;DHT22;9719;49.322;8.536;2023-04-05T12:25:12;46.00;19.40
19174;DHT22;9719;49.322;8.536;2023-04-05T12:30:15;45.20;19.60
19174;DHT22;9719;49.322;8.536;2023-04-05T12:35:18;45.70;19.80
19174;DHT22;9719;49.322;8.536;2023-04-05T12:40:22;46.10;19.60
19174;DHT22;9719;49.322;8.536;2023-04-05T12:45:24;47.50;19.60
19174;DHT22;9719;49.322;8.536;2023-04-05T12:50:29;46.80;19.20
19174;DHT22;9719;49.322;8.536;2023-04-05T12:55:41;46.50;19.40
19174;DHT22;9719;49.322;8.536;2023-04-05T13:00:43;47.20;19.40
19174;DHT22;9719;49.322;8.536;2023-04-05T13:05:46;47.70;19.20
19174;DHT22;9719;49.322;8.536;2023-04-05T13:10:49;48.00;19.30
19174;DHT22;9719;49.322;8.536;2023-04-05T13:15:51;47.20;19.20
19174;DHT22;9719;49.322;8.536;2023-04-05T13:20:53;47.50;19.40
19174;DHT22;9719;49.322;8.536;2023-04-05T13:25:56;43.90;18.40
19174;DHT22;9719;49.322;8.536;2023-04-05T13:30:57;43.80;19.10
19174;DHT22;9719;49.322;8.536;2023-04-05T13:35:59;45.00;19.80
19174;DHT22;9719;49.322;8.536;2023-04-05T13:41:03;45.60;19.10
19174;DHT22;9719;49.322;8.536;2023-04-05T13:46:04;42.50;18.70
19174;DHT22;9719;49.322;8.536;2023-04-05T13:51:06;43.20;19.10
19174;DHT22;9719;49.322;8.536;2023-04-05T13:56:09;43.80;19.80
19174;DHT22;9719;49.322;8.536;2023-04-05T14:01:11;44.40;19.10
19174;DHT22;9719;49.322;8.536;2023-04-05T14:06:13;44.60;19.60
19174;DHT22;9719;49.322;8.536;2023-04-05T14:11:15;44.90;19.60
19174;DHT22;9719;49.322;8.536;2023-04-05T14:16:17;45.20;19.10
19174;DHT22;9719;49.322;8.536;2023-04-05T14:21:19;44.80;18.50
19174;DHT22;9719;49.322;8.536;2023-04-05T14:26:22;42.00;18.60
19174;DHT22;9719;49.322;8.536;2023-04-05T14:31:25;41.70;18.90
19174;DHT22;9719;49.322;8.536;2023-04-05T14:36:26;42.40;19.50
19174;DHT22;9719;49.322;8.536;2023-04-05T14:41:29;43.00;19.60
19174;DHT22;9719;49.322;8.536;2023-04-05T14:46:31;43.30;19.70
19174;DHT22;9719;49.322;8.536;2023-04-05T14:51:33;43.20;19.60
19174;DHT22;9719;49.322;8.536;2023-04-05T14:56:36;42.90;19.70
19174;DHT22;9719;49.322;8.536;2023-04-05T15:01:37;42.30;19.40
19174;DHT22;9719;49.322;8.536;2023-04-05T15:06:41;38.90;19.90
19174;DHT22;9719;49.322;8.536;2023-04-05T15:11:43;34.70;21.10
19174;DHT22;9719;49.322;8.536;2023-04-05T15:16:45;30.90;21.50
19174;DHT22;9719;49.322;8.536;2023-04-05T15:21:47;27.40;23.20
19174;DHT22;9719;49.322;8.536;2023-04-05T15:26:50;24.80;24.20
19174;DHT22;9719;49.322;8.536;2023-04-05T15:31:51;22.60;25.70
19174;DHT22;9719;49.322;8.536;2023-04-05T15:36:53;20.70;26.40
19174;DHT22;9719;49.322;8.536;2023-04-05T15:41:56;19.10;27.80
19174;DHT22;9719;49.322;8.536;2023-04-05T15:46:59;17.70;28.20
19174;DHT22;9719;49.322;8.536;2023-04-05T15:52:00;16.50;29.80
19174;DHT22;9719;49.322;8.536;2023-04-05T15:57:03;15.60;30.90
19174;DHT22;9719;49.322;8.536;2023-04-05T16:02:05;14.90;31.50
19174;DHT22;9719;49.322;8.536;2023-04-05T16:07:07;14.30;32.50
19174;DHT22;9719;49.322;8.536;2023-04-05T16:12:10;13.70;33.70
19174;DHT22;9719;49.322;8.536;2023-04-05T16:17:12;13.40;36.50
19174;DHT22;9719;49.322;8.536;2023-04-05T16:22:14;13.00;34.70
19174;DHT22;9719;49.322;8.536;2023-04-05T16:27:17;12.70;35.40
19174;DHT22;9719;49.322;8.536;2023-04-05T16:32:18;12.30;38.30
19174;DHT22;9719;49.322;8.536;2023-04-05T16:37:20;12.20;37.60
19174;DHT22;9719;49.322;8.536;2023-04-05T16:42:23;11.90;40.70
19174;DHT22;9719;49.322;8.536;2023-04-05T16:47:25;11.80;38.90
19174;DHT22;9719;49.322;8.536;2023-04-05T16:52:26;11.60;40.10
19174;DHT22;9719;49.322;8.536;2023-04-05T16:57:29;11.50;39.00
19174;DHT22;9719;49.322;8.536;2023-04-05T17:02:32;11.30;40.10
19174;DHT22;9719;49.322;8.536;2023-04-05T17:07:33;11.10;42.70
19174;DHT22;9719;49.322;8.536;2023-04-05T17:12:36;11.00;42.70
19174;DHT22;9719;49.322;8.536;2023-04-05T17:17:41;10.80;41.90
19174;DHT22;9719;49.322;8.536;2023-04-05T17:22:43;10.60;42.40
19174;DHT22;9719;49.322;8.536;2023-04-05T17:27:46;10.30;43.80
19174;DHT22;9719;49.322;8.536;2023-04-05T17:32:47;10.10;43.20
19174;DHT22;9719;49.322;8.536;2023-04-05T17:37:49;9.80;42.80
19174;DHT22;9719;49.322;8.536;2023-04-05T17:42:53;9.50;43.30
19174;DHT22;9719;49.322;8.536;2023-04-05T17:47:55;9.20;44.80
19174;DHT22;9719;49.322;8.536;2023-04-05T17:52:56;8.90;45.10
19174;DHT22;9719;49.322;8.536;2023-04-05T17:57:59;8.50;45.30
19174;DHT22;9719;49.322;8.536;2023-04-05T18:03:01;8.10;46.20
19174;DHT22;9719;49.322;8.536;2023-04-05T18:08:03;7.60;46.80
19174;DHT22;9719;49.322;8.536;2023-04-05T18:13:06;7.20;47.90
19174;DHT22;9719;49.322;8.536;2023-04-05T18:18:07;6.80;48.70
19174;DHT22;9719;49.322;8.536;2023-04-05T18:23:09;6.40;48.90
19174;DHT22;9719;49.322;8.536;2023-04-05T18:28:12;6.10;50.30
19174;DHT22;9719;49.322;8.536;2023-04-05T18:33:15;5.90;51.50
19174;DHT22;9719;49.322;8.536;2023-04-05T18:38:17;5.60;51.20
19174;DHT22;9719;49.322;8.536;2023-04-05T18:43:20;5.30;51.30
19174;DHT22;9719;49.322;8.536;2023-04-05T18:48:21;5.10;53.20
19174;DHT22;9719;49.322;8.536;2023-04-05T18:53:24;4.90;53.10
19174;DHT22;9719;49.322;8.536;2023-04-05T18:58:27;4.70;53.60
19174;DHT22;9719;49.322;8.536;2023-04-05T19:03:29;4.60;53.70
19174;DHT22;9719;49.322;8.536;2023-04-05T19:08:32;4.40;54.20
19174;DHT22;9719;49.322;8.536;2023-04-05T19:13:35;4.10;54.60
19174;DHT22;9719;49.322;8.536;2023-04-05T19:18:36;4.00;55.70
19174;DHT22;9719;49.322;8.536;2023-04-05T19:23:38;3.80;55.60
19174;DHT22;9719;49.322;8.536;2023-04-05T19:28:41;3.70;58.20
19174;DHT22;9719;49.322;8.536;2023-04-05T19:33:43;3.60;57.90
19174;DHT22;9719;49.322;8.536;2023-04-05T19:38:44;3.60;57.10
19174;DHT22;9719;49.322;8.536;2023-04-05T19:43:47;3.40;57.20
19174;DHT22;9719;49.322;8.536;2023-04-05T19:48:49;3.30;58.30
19174;DHT22;9719;49.322;8.536;2023-04-05T19:53:51;3.10;58.50
19174;DHT22;9719;49.322;8.536;2023-04-05T19:58:56;3.00;60.50
19174;DHT22;9719;49.322;8.536;2023-04-05T20:03:59;2.90;60.50
19174;DHT22;9719;49.322;8.536;2023-04-05T20:09:04;2.90;60.60
19174;DHT22;9719;49.322;8.536;2023-04-05T20:14:08;2.80;61.10
19174;DHT22;9719;49.322;8.536;2023-04-05T20:19:09;2.60;61.10
19174;DHT22;9719;49.322;8.536;2023-04-05T20:24:14;2.40;61.60
19174;DHT22;9719;49.322;8.536;2023-04-05T20:29:22;2.30;63.60
19174;DHT22;9719;49.322;8.536;2023-04-05T20:34:27;2.30;65.50
19174;DHT22;9719;49.322;8.536;2023-04-05T20:39:29;2.40;66.40
19174;DHT22;9719;49.322;8.536;2023-04-05T20:44:32;2.30;65.30
19174;DHT22;9719;49.322;8.536;2023-04-05T20:49:34;2.30;69.30
19174;DHT22;9719;49.322;8.536;2023-04-05T20:54:35;2.40;69.70
19174;DHT22;9719;49.322;8.536;2023-04-05T20:59:38;2.40;67.40
19174;DHT22;9719;49.322;8.536;2023-04-05T21:04:40;2.20;69.30
19174;DHT22;9719;49.322;8.536;2023-04-05T21:09:42;2.30;71.10
19174;DHT22;9719;49.322;8.536;2023-04-05T21:14:45;2.30;72.10
19174;DHT22;9719;49.322;8.536;2023-04-05T21:19:46;2.30;72.50
19174;DHT22;9719;49.322;8.536;2023-04-05T21:24:48;2.20;71.60
19174;DHT22;9719;49.322;8.536;2023-04-05T21:29:51;2.10;73.70
19174;DHT22;9719;49.322;8.536;2023-04-05T21:34:53;2.10;77.90
19174;DHT22;9719;49.322;8.536;2023-04-05T21:39:54;2.10;75.00
19174;DHT22;9719;49.322;8.536;2023-04-05T21:44:57;2.00;76.20
19174;DHT22;9719;49.322;8.536;2023-04-05T21:49:59;1.90;77.70
19174;DHT22;9719;49.322;8.536;2023-04-05T21:55:01;1.70;74.90
19174;DHT22;9719;49.322;8.536;2023-04-05T22:00:05;1.60;78.50
19174;DHT22;9719;49.322;8.536;2023-04-05T22:05:10;1.50;78.40
19174;DHT22;9719;49.322;8.536;2023-04-05T22:10:12;1.40;77.20
19174;DHT22;9719;49.322;8.536;2023-04-05T22:15:15;1.30;78.20
19174;DHT22;9719;49.322;8.536;2023-04-05T22:20:17;1.20;79.50
19174;DHT22;9719;49.322;8.536;2023-04-05T22:25:18;1.10;78.90
19174;DHT22;9719;49.322;8.536;2023-04-05T22:30:21;1.10;85.20
19174;DHT22;9719;49.322;8.536;2023-04-05T22:35:23;1.20;84.00
19174;DHT22;9719;49.322;8.536;2023-04-05T22:40:25;1.10;82.30
19174;DHT22;9719;49.322;8.536;2023-04-05T22:45:28;1.00;83.90
19174;DHT22;9719;49.322;8.536;2023-04-05T22:50:30;0.80;82.20
19174;DHT22;9719;49.322;8.536;2023-04-05T22:55:31;0.80;87.60
19174;DHT22;9719;49.322;8.536;2023-04-05T23:00:35;0.80;87.90
19174;DHT22;9719;49.322;8.536;2023-04-05T23:05:37;0.70;87.20
19174;DHT22;9719;49.322;8.536;2023-04-05T23:10:38;0.70;85.30
19174;DHT22;9719;49.322;8.536;2023-04-05T23:15:41;0.60;88.30
19174;DHT22;9719;49.322;8.536;2023-04-05T23:20:43;0.60;89.20
19174;DHT22;9719;49.322;8.536;2023-04-05T23:25:45;0.60;88.60
19174;DHT22;9719;49.322;8.536;2023-04-05T23:30:48;0.60;90.00
19174;DHT22;9719;49.322;8.536;2023-04-05T23:35:49;0.60;90.10
19174;DHT22;9719;49.322;8.536;2023-04-05T23:40:51;0.60;90.60
19174;DHT22;9719;49.322;8.536;2023-04-05T23:45:54;0.60;90.40
19174;DHT22;9719;49.322;8.536;2023-04-05T23:50:55;0.60;91.50
19174;DHT22;9719;49.322;8.536;2023-04-05T23:55:57;0.60;95.00
